Holberg, Canada
Current Conditions -  °F | °C
As of 1:27 PM on Sunday 21 Dec 2014 (Local Time) from CYZT Reporting Station
Broken Clouds Broken Clouds  
Wind Chill: 44°   Ceiling: 7800
Heat Index: 48°   Visibility: 15mi
Dew Point: 45°   Wind: 9mph
Humidity: 87%   Direction: 230°SW
Pressure: 29.83"   Gusts: NA
Location:  50.65°N, 128.02°W
Report Text: CYZT 212127Z 23008KT 15SM FEW012 FEW026 SCT046 BKN078 09/07 A2983 RMK SF1SC2SC2AC2 SF TR SLP102
Loading
Personal Weather Stations






























Interactive Weather Map New forecast layout! Learn more

10-Day Weather Forecast

Advertisements
Track Severe Weather on mobile